This is the latest recevied weather packets stored in our database for station/object DL6MM-4. If no packets are shown the sender has not sent any weather packets the latest 10 day(s).
| Time | Temp. | Humidity | Pressure | Rain* | Wind** | Luminosity | Snow |
|---|---|---|---|---|---|---|---|
| 1777910356 | 17.78° C | 74% | 1010.2 hPa | 0 mm | - | - | - |
| 1777909756 | 20° C | 65% | 1010.1 hPa | 0 mm | - | - | - |
| 1777909156 | 21.11° C | 58% | 1009.7 hPa | 0 mm | - | - | - |
| 1777908556 | 21.11° C | 57% | 1009.7 hPa | 0 mm | - | - | - |
| 1777907956 | 21.67° C | 54% | 1009.6 hPa | 0 mm | - | - | - |
| 1777907356 | 22.22° C | 52% | 1009.6 hPa | 0 mm | - | - | - |
| 1777906756 | 22.22° C | 54% | 1009.6 hPa | 0 mm | - | - | - |
| 1777906156 | 22.22° C | 53% | 1009.7 hPa | 0 mm | - | - | - |
| 1777905556 | 21.67° C | 53% | 1009.7 hPa | 0 mm | - | - | - |
| 1777904956 | 22.22° C | 55% | 1010 hPa | 0 mm | - | - | - |
| 1777904356 | 22.22° C | 54% | 1010.1 hPa | 0 mm | - | - | - |
| 1777903756 | 22.22° C | 56% | 1010.2 hPa | 0 mm | - | - | - |
| 1777903156 | 22.22° C | 56% | 1010.2 hPa | 0 mm | - | - | - |
| 1777902556 | 22.22° C | 52% | 1010.2 hPa | 0 mm | - | - | - |
| 1777901956 | 22.78° C | 53% | 1010.4 hPa | 0 mm | - | - | - |
| 1777901356 | 22.22° C | 55% | 1010.4 hPa | 0 mm | - | - | - |
| 1777900756 | 22.78° C | 51% | 1010.4 hPa | 0 mm | - | - | - |
| 1777900156 | 22.78° C | 50% | 1010.5 hPa | 0 mm | - | - | - |
| 1777899556 | 22.22° C | 54% | 1010.6 hPa | 0 mm | - | - | - |
| 1777898956 | 22.22° C | 53% | 1010.7 hPa | 0 mm | - | - | - |
| 1777898356 | 22.78° C | 54% | 1010.7 hPa | 0 mm | - | - | - |
| 1777897756 | 23.33° C | 50% | 1010.7 hPa | 0 mm | - | - | - |
| 1777897156 | 23.89° C | 51% | 1010.7 hPa | 0 mm | - | - | - |
| 1777896556 | 23.33° C | 52% | 1010.9 hPa | 0 mm | - | - | - |
| 1777895956 | 23.33° C | 52% | 1011 hPa | 0 mm | - | - | - |
* Rain latest hour (hover to see other rain measurements)
** Current wind speed in m/s (hover to see current wind gust speed)